createdAt,value
2022-10-23T00:00:27.291Z,978.08
2022-10-23T00:01:27.224Z,978.06
2022-10-23T00:02:27.237Z,978.10
2022-10-23T00:03:27.203Z,978.09
2022-10-23T00:04:27.182Z,978.12
2022-10-23T00:05:27.172Z,978.16
2022-10-23T00:06:27.154Z,978.12
2022-10-23T00:07:27.168Z,978.11
2022-10-23T00:08:27.125Z,978.14
2022-10-23T00:09:27.115Z,978.13
2022-10-23T00:10:27.097Z,978.06
2022-10-23T00:11:27.084Z,978.07
2022-10-23T00:12:27.069Z,978.11
2022-10-23T00:13:27.079Z,977.86
2022-10-23T00:14:27.045Z,977.96
2022-10-23T00:15:27.031Z,977.89
2022-10-23T00:16:27.012Z,977.84
2022-10-23T00:17:27.010Z,977.77
2022-10-23T00:18:26.989Z,977.77
2022-10-23T00:19:26.983Z,977.86
2022-10-23T00:20:26.960Z,977.86
2022-10-23T00:21:26.951Z,977.86
2022-10-23T00:22:26.935Z,977.87
2022-10-23T00:23:26.924Z,977.88
2022-10-23T00:24:26.910Z,977.85
2022-10-23T00:25:26.894Z,977.90
2022-10-23T00:26:26.873Z,977.89
2022-10-23T00:27:26.865Z,977.90
2022-10-23T00:28:26.846Z,977.87
2022-10-23T00:29:26.859Z,977.84
2022-10-23T00:30:26.818Z,977.85
2022-10-23T00:31:26.814Z,977.88
2022-10-23T00:32:26.836Z,977.86
2022-10-23T00:33:26.788Z,977.77
2022-10-23T00:34:26.783Z,977.82
2022-10-23T00:35:26.756Z,977.74
2022-10-23T00:36:26.749Z,977.69
2022-10-23T00:37:26.735Z,977.71
2022-10-23T00:38:26.719Z,977.74
2022-10-23T00:39:26.713Z,977.78
2022-10-23T00:40:26.687Z,977.70
2022-10-23T00:41:26.675Z,977.80
2022-10-23T00:42:26.661Z,977.77
2022-10-23T00:43:26.647Z,977.80
2022-10-23T00:44:26.628Z,977.78
2022-10-23T00:45:26.640Z,977.80
2022-10-23T00:46:26.603Z,977.82
2022-10-23T00:47:26.592Z,977.75
2022-10-23T00:48:26.582Z,977.76
2022-10-23T00:49:26.562Z,977.75
2022-10-23T00:50:26.549Z,977.86
2022-10-23T00:51:26.540Z,977.91
2022-10-23T00:52:26.521Z,977.86
2022-10-23T00:53:26.506Z,977.82
2022-10-23T00:54:26.498Z,977.88
2022-10-23T00:55:26.497Z,977.84
2022-10-23T00:56:26.460Z,977.83
2022-10-23T00:57:26.453Z,977.79
2022-10-23T00:58:26.444Z,977.80
2022-10-23T00:59:26.440Z,977.77
2022-10-23T01:00:26.414Z,977.76
2022-10-23T01:01:26.543Z,977.90
2022-10-23T01:02:26.473Z,977.86
2022-10-23T01:03:26.374Z,977.88
2022-10-23T01:04:26.356Z,977.86
2022-10-23T01:05:26.347Z,977.89
2022-10-23T01:06:26.323Z,977.86
2022-10-23T01:07:26.315Z,977.78
2022-10-23T01:08:26.304Z,977.81
2022-10-23T01:09:26.293Z,977.82
2022-10-23T01:10:26.269Z,977.79
2022-10-23T01:11:26.267Z,977.77
2022-10-23T01:12:26.250Z,977.66
2022-10-23T01:13:26.241Z,977.61
2022-10-23T01:14:26.222Z,977.75
2022-10-23T01:15:26.211Z,977.74
2022-10-23T01:16:26.197Z,977.73
2022-10-23T01:17:26.205Z,977.77
2022-10-23T01:18:26.167Z,977.66
2022-10-23T01:19:26.156Z,977.61
2022-10-23T01:20:26.138Z,977.63
2022-10-23T01:21:26.127Z,977.65
2022-10-23T01:22:26.115Z,977.66
2022-10-23T01:23:26.103Z,977.62
2022-10-23T01:24:26.081Z,977.57
2022-10-23T01:25:26.076Z,977.56
2022-10-23T01:26:26.061Z,977.65
2022-10-23T01:27:26.049Z,977.65
2022-10-23T01:28:26.031Z,977.62
2022-10-23T01:29:26.018Z,977.61
2022-10-23T01:30:25.998Z,977.66
2022-10-23T01:31:25.988Z,977.57
2022-10-23T01:32:25.974Z,977.64
2022-10-23T01:33:25.984Z,977.53
2022-10-23T01:34:25.948Z,977.55
2022-10-23T01:35:25.936Z,977.54
2022-10-23T01:36:25.918Z,977.50
2022-10-23T01:37:25.917Z,977.50
2022-10-23T01:38:25.897Z,977.42
2022-10-23T01:39:25.883Z,977.43
2022-10-23T01:40:25.865Z,977.42
2022-10-23T01:41:25.857Z,977.44
2022-10-23T01:42:25.851Z,977.47
2022-10-23T01:43:25.832Z,977.47
2022-10-23T01:44:25.814Z,977.45
2022-10-23T01:45:25.800Z,977.43
2022-10-23T01:46:25.782Z,977.44
2022-10-23T01:47:25.774Z,977.45
2022-10-23T01:48:25.755Z,977.41
2022-10-23T01:49:25.762Z,977.39
2022-10-23T01:50:25.730Z,977.41
2022-10-23T01:51:25.727Z,977.37
2022-10-23T01:52:25.703Z,977.39
2022-10-23T01:53:25.699Z,977.35
2022-10-23T01:54:25.671Z,977.39
2022-10-23T01:55:25.664Z,977.45
2022-10-23T01:56:25.647Z,977.45
2022-10-23T01:57:25.631Z,977.45
2022-10-23T01:58:25.623Z,977.42
2022-10-23T01:59:25.608Z,977.29
2022-10-23T02:00:25.596Z,977.29
2022-10-23T02:01:25.703Z,977.34
2022-10-23T02:02:25.631Z,977.32
2022-10-23T02:03:25.553Z,977.27
2022-10-23T02:04:25.546Z,977.21
2022-10-23T02:05:25.549Z,977.23
2022-10-23T02:06:25.530Z,977.16
2022-10-23T02:07:25.503Z,977.18
2022-10-23T02:08:25.493Z,977.09
2022-10-23T02:09:25.469Z,977.15
2022-10-23T02:10:25.463Z,977.14
2022-10-23T02:11:25.443Z,977.23
2022-10-23T02:12:25.438Z,977.26
2022-10-23T02:13:25.423Z,977.22
2022-10-23T02:14:25.415Z,977.15
2022-10-23T02:15:25.392Z,977.14
2022-10-23T02:16:25.380Z,977.14
2022-10-23T02:17:25.361Z,977.09
2022-10-23T02:18:25.361Z,977.12
2022-10-23T02:19:25.341Z,977.13
2022-10-23T02:20:25.330Z,977.18
2022-10-23T02:21:25.336Z,977.07
2022-10-23T02:22:25.299Z,977.19
2022-10-23T02:23:25.288Z,977.19
2022-10-23T02:24:25.279Z,977.13
2022-10-23T02:25:25.260Z,977.16
2022-10-23T02:26:25.245Z,977.18
2022-10-23T02:27:25.231Z,977.12
2022-10-23T02:28:25.218Z,977.18
2022-10-23T02:29:25.199Z,977.14
2022-10-23T02:30:25.193Z,977.13
2022-10-23T02:31:25.178Z,977.15
2022-10-23T02:32:25.163Z,977.04
2022-10-23T02:33:25.152Z,977.07
2022-10-23T02:34:25.140Z,977.06
2022-10-23T02:35:25.124Z,977.06
2022-10-23T02:36:25.115Z,976.99
2022-10-23T02:37:25.119Z,976.98
2022-10-23T02:38:25.089Z,976.96
2022-10-23T02:39:25.070Z,976.92
2022-10-23T02:40:25.056Z,976.88
2022-10-23T02:41:25.038Z,976.91
2022-10-23T02:42:25.029Z,976.86
2022-10-23T02:43:25.009Z,976.81
2022-10-23T02:44:25.001Z,976.79
2022-10-23T02:45:24.983Z,976.82
2022-10-23T02:46:24.975Z,976.79
2022-10-23T02:47:24.968Z,976.79
2022-10-23T02:48:24.943Z,976.78
2022-10-23T02:49:24.936Z,976.73
2022-10-23T02:50:24.921Z,976.70
2022-10-23T02:51:24.915Z,976.66
2022-10-23T02:52:24.888Z,976.67
2022-10-23T02:53:24.904Z,976.61
2022-10-23T02:54:24.860Z,976.55
2022-10-23T02:55:24.849Z,976.68
2022-10-23T02:56:24.845Z,976.71
2022-10-23T02:57:24.829Z,976.72
2022-10-23T02:58:24.807Z,976.65
2022-10-23T02:59:24.795Z,976.73
2022-10-23T03:00:24.790Z,976.66
2022-10-23T03:01:24.905Z,976.70
2022-10-23T03:02:25.883Z,976.66
2022-10-23T03:03:24.742Z,976.70
2022-10-23T03:04:24.735Z,976.69
2022-10-23T03:05:24.723Z,976.67
2022-10-23T03:06:24.697Z,976.65
2022-10-23T03:07:24.692Z,976.63
2022-10-23T03:08:24.682Z,976.69
2022-10-23T03:09:24.691Z,976.58
2022-10-23T03:10:24.649Z,976.53
2022-10-23T03:11:24.644Z,976.61
2022-10-23T03:12:24.619Z,976.60
2022-10-23T03:13:24.613Z,976.59
2022-10-23T03:14:24.598Z,976.61
2022-10-23T03:15:24.583Z,976.70
2022-10-23T03:16:24.567Z,976.67
2022-10-23T03:17:24.556Z,976.67
2022-10-23T03:18:24.538Z,976.62
2022-10-23T03:19:24.532Z,976.66
2022-10-23T03:20:24.518Z,976.61
2022-10-23T03:21:24.497Z,976.68
2022-10-23T03:22:24.480Z,976.70
2022-10-23T03:23:24.475Z,976.61
2022-10-23T03:24:24.466Z,976.63
2022-10-23T03:25:24.470Z,976.65
2022-10-23T03:26:24.435Z,976.64
2022-10-23T03:27:24.507Z,976.58
2022-10-23T03:28:24.404Z,976.56
2022-10-23T03:29:24.400Z,976.59
2022-10-23T03:30:24.383Z,976.60
2022-10-23T03:31:24.368Z,976.68
2022-10-23T03:32:24.350Z,976.69
2022-10-23T03:33:24.365Z,976.65
2022-10-23T03:34:24.328Z,976.66
2022-10-23T03:35:24.320Z,976.65
2022-10-23T03:36:24.297Z,976.64
2022-10-23T03:37:24.288Z,976.64
2022-10-23T03:38:24.271Z,976.58
2022-10-23T03:39:24.259Z,976.54
2022-10-23T03:40:24.240Z,976.56
2022-10-23T03:41:24.251Z,976.59
2022-10-23T03:42:24.217Z,976.59
2022-10-23T03:43:24.205Z,976.60
2022-10-23T03:44:24.190Z,976.58
2022-10-23T03:45:24.174Z,976.55
2022-10-23T03:46:24.156Z,976.52
2022-10-23T03:47:24.149Z,976.56
2022-10-23T03:48:24.134Z,976.49
2022-10-23T03:49:24.121Z,976.52
2022-10-23T03:50:24.113Z,976.52
2022-10-23T03:51:24.103Z,976.42
2022-10-23T03:53:24.070Z,976.40
2022-10-23T03:54:24.051Z,976.44
2022-10-23T03:55:24.041Z,976.41
2022-10-23T03:56:24.022Z,976.39
2022-10-23T03:57:24.041Z,976.51
2022-10-23T03:58:23.995Z,976.47
2022-10-23T03:59:23.983Z,976.49
2022-10-23T04:00:23.971Z,976.49
2022-10-23T04:01:24.133Z,976.53
2022-10-23T04:02:23.981Z,976.53
2022-10-23T04:03:23.929Z,976.54
2022-10-23T04:04:23.915Z,976.57
2022-10-23T04:05:23.904Z,976.47
2022-10-23T04:06:23.890Z,976.56
2022-10-23T04:07:23.883Z,976.63
2022-10-23T04:08:23.868Z,976.62
2022-10-23T04:09:23.854Z,976.57
2022-10-23T04:10:23.848Z,976.59
2022-10-23T04:11:23.833Z,976.56
2022-10-23T04:12:23.811Z,976.59
2022-10-23T04:13:23.830Z,976.52
2022-10-23T04:14:23.785Z,976.58
2022-10-23T04:15:23.779Z,976.53
2022-10-23T04:16:23.762Z,976.59
2022-10-23T04:17:23.786Z,976.66
2022-10-23T04:18:23.736Z,976.57
2022-10-23T04:19:23.714Z,976.61
2022-10-23T04:20:23.698Z,976.65
2022-10-23T04:21:23.691Z,976.66
2022-10-23T04:22:26.105Z,976.68
2022-10-23T04:23:23.668Z,976.68
2022-10-23T04:24:23.642Z,976.64
2022-10-23T04:25:23.640Z,976.64
2022-10-23T04:26:23.627Z,976.73
2022-10-23T04:27:23.614Z,976.72
2022-10-23T04:28:23.600Z,976.66
2022-10-23T04:29:23.610Z,976.71
2022-10-23T04:30:23.571Z,976.66
2022-10-23T04:31:23.558Z,976.64
2022-10-23T04:32:23.544Z,976.56
2022-10-23T04:33:23.528Z,976.62
2022-10-23T04:34:23.510Z,976.58
2022-10-23T04:35:23.504Z,976.56
2022-10-23T04:36:23.484Z,976.61
2022-10-23T04:37:23.478Z,976.56
2022-10-23T04:38:23.458Z,976.56
2022-10-23T04:39:23.461Z,976.67
2022-10-23T04:40:23.429Z,976.55
2022-10-23T04:41:23.426Z,976.59
2022-10-23T04:42:23.461Z,976.46
2022-10-23T04:43:23.396Z,976.43
2022-10-23T04:44:23.372Z,976.46
2022-10-23T04:45:23.388Z,976.46
2022-10-23T04:46:23.345Z,976.46
2022-10-23T04:47:23.336Z,976.47
2022-10-23T04:48:25.620Z,976.48
2022-10-23T04:49:23.357Z,976.41
2022-10-23T04:50:23.294Z,976.46
2022-10-23T04:51:23.279Z,976.49
2022-10-23T04:52:23.273Z,976.50
2022-10-23T04:53:23.262Z,976.47
2022-10-23T04:54:23.245Z,976.38
2022-10-23T04:55:23.233Z,976.48
2022-10-23T04:56:23.218Z,976.46
2022-10-23T04:57:23.201Z,976.46
2022-10-23T04:58:23.183Z,976.41
2022-10-23T04:59:23.178Z,976.43
2022-10-23T05:00:23.159Z,976.47
2022-10-23T05:01:23.253Z,976.43
2022-10-23T05:02:23.129Z,976.48
2022-10-23T05:03:23.122Z,976.50
2022-10-23T05:04:23.103Z,976.54
2022-10-23T05:05:23.101Z,976.55
2022-10-23T05:06:23.079Z,976.57
2022-10-23T05:07:23.154Z,976.54
2022-10-23T05:08:23.061Z,976.54
2022-10-23T05:09:23.069Z,976.50
2022-10-23T05:10:23.020Z,976.48
2022-10-23T05:11:23.046Z,976.44
2022-10-23T05:12:23.003Z,976.45
2022-10-23T05:13:23.015Z,976.42
2022-10-23T05:14:23.079Z,976.42
2022-10-23T05:15:22.973Z,976.36
2022-10-23T05:16:22.954Z,976.43
2022-10-23T05:17:22.969Z,976.45
2022-10-23T05:18:22.918Z,976.41
2022-10-23T05:19:24.330Z,976.42
2022-10-23T05:20:22.893Z,976.40
2022-10-23T05:21:22.876Z,976.39
2022-10-23T05:22:22.860Z,976.39
2022-10-23T05:23:22.849Z,976.35
2022-10-23T05:24:22.835Z,976.35
2022-10-23T05:25:22.821Z,976.37
2022-10-23T05:26:22.805Z,976.45
2022-10-23T05:30:56.669Z,976.29
2022-10-23T05:31:56.649Z,976.39
2022-10-23T05:32:56.664Z,976.39
2022-10-23T05:33:56.621Z,976.39
2022-10-23T05:34:56.615Z,976.36
2022-10-23T05:35:56.600Z,976.42
2022-10-23T05:36:56.586Z,976.37
2022-10-23T05:37:56.571Z,976.27
2022-10-23T05:38:56.561Z,976.27
2022-10-23T05:39:56.548Z,976.35
2022-10-23T05:40:56.535Z,976.37
2022-10-23T05:41:56.518Z,976.40
2022-10-23T05:42:56.510Z,976.36
2022-10-23T05:43:56.490Z,976.31
2022-10-23T05:44:56.482Z,976.43
2022-10-23T05:45:56.463Z,976.40
2022-10-23T05:46:56.455Z,976.37
2022-10-23T05:48:05.689Z,976.37
2022-10-23T05:48:57.473Z,976.40
2022-10-23T05:49:56.414Z,976.29
2022-10-23T05:50:56.404Z,976.29
2022-10-23T05:51:56.386Z,976.24
2022-10-23T05:52:56.372Z,976.19
2022-10-23T05:53:56.354Z,976.15
2022-10-23T05:54:56.351Z,976.21
2022-10-23T05:55:56.333Z,976.21
2022-10-23T05:56:56.324Z,976.21
2022-10-23T05:57:56.306Z,976.08
2022-10-23T05:58:56.294Z,976.12
2022-10-23T05:59:56.280Z,976.13
2022-10-23T06:00:56.365Z,976.16
2022-10-23T06:01:56.388Z,976.10
2022-10-23T06:02:56.239Z,976.15
2022-10-23T06:03:56.223Z,976.17
2022-10-23T06:04:56.235Z,976.19
2022-10-23T06:05:56.197Z,976.17
2022-10-23T06:06:56.186Z,976.14
2022-10-23T06:07:56.169Z,976.18
2022-10-23T06:08:56.162Z,976.15
2022-10-23T06:09:56.146Z,976.02
2022-10-23T06:10:56.133Z,976.09
2022-10-23T06:11:56.119Z,976.14
2022-10-23T06:12:56.107Z,976.04
2022-10-23T06:14:56.081Z,976.10
2022-10-23T06:15:56.064Z,976.06
2022-10-23T06:16:56.053Z,976.10
2022-10-23T06:17:56.038Z,976.12
2022-10-23T06:18:56.024Z,976.17
2022-10-23T06:19:56.012Z,976.18
2022-10-23T06:20:56.017Z,976.21
2022-10-23T06:21:55.985Z,976.11
2022-10-23T06:22:55.975Z,976.09
2022-10-23T06:23:55.963Z,976.06
2022-10-23T06:24:55.948Z,976.07
2022-10-23T06:25:55.939Z,976.02
2022-10-23T06:26:55.923Z,976.08
2022-10-23T06:27:56.013Z,976.05
2022-10-23T06:28:55.895Z,976.09
2022-10-23T06:29:55.885Z,976.10
2022-10-23T06:30:55.865Z,976.07
2022-10-23T06:31:55.851Z,976.19
2022-10-23T06:32:55.841Z,976.18
2022-10-23T06:33:55.829Z,976.18
2022-10-23T06:34:55.811Z,976.11
2022-10-23T06:35:55.802Z,976.08
2022-10-23T06:36:55.807Z,976.03
2022-10-23T06:37:55.772Z,976.00
2022-10-23T06:38:55.799Z,976.01
2022-10-23T06:39:55.750Z,975.99
2022-10-23T06:40:55.784Z,976.01
2022-10-23T06:41:55.724Z,976.10
2022-10-23T06:42:55.707Z,976.07
2022-10-23T06:43:55.698Z,976.02
2022-10-23T06:44:55.682Z,976.07
2022-10-23T06:45:55.671Z,976.05
2022-10-23T06:46:55.651Z,976.01
2022-10-23T06:47:55.642Z,976.01
2022-10-23T06:48:55.972Z,975.95
2022-10-23T06:49:55.613Z,976.02
2022-10-23T06:50:55.600Z,976.02
2022-10-23T06:51:55.594Z,976.05
2022-10-23T06:52:55.596Z,976.01
2022-10-23T06:53:55.563Z,975.97
2022-10-23T06:54:55.552Z,976.03
2022-10-23T06:55:55.739Z,976.03
2022-10-23T06:56:55.514Z,976.09
2022-10-23T06:57:55.503Z,976.17
2022-10-23T06:58:55.486Z,976.17
2022-10-23T06:59:55.480Z,976.15
2022-10-23T07:00:55.549Z,976.17
2022-10-23T07:01:55.528Z,976.20
2022-10-23T07:02:55.440Z,976.17
2022-10-23T07:03:55.427Z,976.17
2022-10-23T07:04:55.410Z,976.19
2022-10-23T07:05:55.400Z,976.31
2022-10-23T07:06:55.389Z,976.24
2022-10-23T07:07:55.375Z,976.19
2022-10-23T07:08:55.381Z,976.08
2022-10-23T07:09:55.358Z,976.13
2022-10-23T07:10:55.332Z,976.13
2022-10-23T07:11:55.321Z,976.20
2022-10-23T07:12:55.301Z,976.18
2022-10-23T07:13:55.291Z,976.09
2022-10-23T07:14:55.274Z,976.18
2022-10-23T07:15:55.269Z,976.16
2022-10-23T07:16:55.247Z,976.11
2022-10-23T07:17:55.237Z,976.13
2022-10-23T07:18:55.225Z,976.11
2022-10-23T07:19:55.213Z,976.07
2022-10-23T07:20:55.198Z,976.13
2022-10-23T07:21:55.186Z,976.15
2022-10-23T07:22:55.168Z,976.20
2022-10-23T07:23:55.154Z,976.12
2022-10-23T07:24:55.162Z,976.04
2022-10-23T07:25:55.129Z,976.02
2022-10-23T07:26:55.119Z,976.04
2022-10-23T07:27:55.108Z,976.02
2022-10-23T07:28:55.096Z,975.98
2022-10-23T07:29:55.079Z,975.98
2022-10-23T07:30:55.075Z,975.96
2022-10-23T07:31:55.052Z,976.00
2022-10-23T07:32:55.035Z,976.03
2022-10-23T07:33:55.029Z,975.94
2022-10-23T07:34:55.006Z,975.97
2022-10-23T07:35:54.994Z,976.12
2022-10-23T07:36:54.980Z,976.15
2022-10-23T07:37:54.967Z,976.12
2022-10-23T07:38:54.953Z,976.07
2022-10-23T07:39:54.940Z,976.12
2022-10-23T07:40:54.948Z,976.05
2022-10-23T07:41:54.916Z,976.03
2022-10-23T07:42:54.902Z,975.99
2022-10-23T07:43:54.892Z,976.06
2022-10-23T07:44:54.874Z,976.07
2022-10-23T07:45:54.864Z,975.99
2022-10-23T07:46:54.852Z,975.96
2022-10-23T07:47:54.838Z,975.98
2022-10-23T07:48:54.822Z,976.01
2022-10-23T07:49:54.811Z,975.87
2022-10-23T07:50:54.791Z,975.80
2022-10-23T07:51:54.849Z,975.85
2022-10-23T07:52:54.763Z,975.88
2022-10-23T07:53:54.756Z,975.86
2022-10-23T07:54:54.742Z,975.83
2022-10-23T07:55:54.730Z,975.86
2022-10-23T07:56:54.741Z,975.87
2022-10-23T07:57:54.706Z,975.80
2022-10-23T07:58:54.685Z,975.83
2022-10-23T07:59:54.875Z,975.79
2022-10-23T08:00:54.659Z,975.75
2022-10-23T08:01:55.822Z,975.69
2022-10-23T08:02:54.630Z,975.60
2022-10-23T08:03:54.621Z,975.69
2022-10-23T08:04:54.606Z,975.66
2022-10-23T08:05:54.597Z,975.56
2022-10-23T08:06:54.585Z,975.56
2022-10-23T08:07:54.576Z,975.55
2022-10-23T08:08:54.557Z,975.48
2022-10-23T08:09:54.548Z,975.58
2022-10-23T08:10:54.528Z,975.58
2022-10-23T08:11:54.521Z,975.52
2022-10-23T08:12:54.524Z,975.51
2022-10-23T08:13:54.492Z,975.53
2022-10-23T08:14:54.490Z,975.56
2022-10-23T08:15:54.459Z,975.55
2022-10-23T08:16:54.479Z,975.52
2022-10-23T08:17:54.433Z,975.48
2022-10-23T08:18:54.421Z,975.42
2022-10-23T08:19:54.408Z,975.46
2022-10-23T08:20:54.392Z,975.39
2022-10-23T08:21:54.385Z,975.37
2022-10-23T08:22:54.420Z,975.38
2022-10-23T08:23:54.360Z,975.43
2022-10-23T08:24:54.342Z,975.47
2022-10-23T08:25:54.335Z,975.46
2022-10-23T08:26:54.313Z,975.35
2022-10-23T08:27:54.303Z,975.36
2022-10-23T08:28:54.307Z,975.44
2022-10-23T08:29:54.275Z,975.40
2022-10-23T08:30:54.265Z,975.38
2022-10-23T08:31:54.256Z,975.35
2022-10-23T08:32:54.305Z,975.37
2022-10-23T08:33:54.230Z,975.39
2022-10-23T08:34:54.210Z,975.32
2022-10-23T08:35:54.197Z,975.31
2022-10-23T08:36:54.183Z,975.24
2022-10-23T08:37:54.171Z,975.22
2022-10-23T08:38:54.149Z,975.19
2022-10-23T08:39:54.143Z,975.19
2022-10-23T08:40:54.126Z,975.16
2022-10-23T08:41:54.113Z,975.14
2022-10-23T08:42:54.149Z,975.15
2022-10-23T08:43:54.087Z,975.17
2022-10-23T08:44:54.094Z,975.05
2022-10-23T08:45:54.068Z,975.02
2022-10-23T08:46:54.049Z,975.04
2022-10-23T08:47:54.041Z,975.04
2022-10-23T08:48:54.022Z,975.07
2022-10-23T08:49:54.012Z,975.08
2022-10-23T08:50:54.002Z,975.11
2022-10-23T08:51:53.990Z,975.10
2022-10-23T08:52:53.971Z,975.03
2022-10-23T08:53:53.965Z,975.05
2022-10-23T08:54:53.939Z,975.10
2022-10-23T08:55:53.930Z,975.12
2022-10-23T08:56:53.912Z,975.13
2022-10-23T08:57:53.910Z,975.10
2022-10-23T08:58:53.900Z,975.08
2022-10-23T08:59:53.876Z,975.12
2022-10-23T09:00:53.932Z,975.16
2022-10-23T09:01:53.977Z,975.22
2022-10-23T09:02:53.831Z,975.19
2022-10-23T09:03:53.821Z,975.22
2022-10-23T09:04:53.812Z,975.28
2022-10-23T09:05:53.803Z,975.36
2022-10-23T09:06:53.781Z,975.28
2022-10-23T09:07:53.767Z,975.32
2022-10-23T09:08:53.752Z,975.22
2022-10-23T09:09:53.742Z,975.30
2022-10-23T09:10:53.727Z,975.24
2022-10-23T09:11:53.715Z,975.29
2022-10-23T09:12:53.777Z,975.30
2022-10-23T09:13:53.696Z,975.18
2022-10-23T09:14:53.683Z,975.21
2022-10-23T09:15:53.663Z,975.10
2022-10-23T09:16:53.671Z,975.08
2022-10-23T09:17:53.645Z,974.97
2022-10-23T09:18:53.623Z,975.07
2022-10-23T09:19:53.615Z,975.02
2022-10-23T09:20:53.593Z,975.01
2022-10-23T09:21:53.587Z,974.93
2022-10-23T09:22:53.669Z,974.96
2022-10-23T09:23:53.561Z,974.90
2022-10-23T09:24:54.013Z,974.89
2022-10-23T09:25:53.534Z,974.88
2022-10-23T09:26:53.615Z,974.77
2022-10-23T09:27:56.132Z,974.90
2022-10-23T09:28:53.490Z,974.96
2022-10-23T09:29:53.482Z,974.95
2022-10-23T09:30:53.462Z,974.90
2022-10-23T09:31:53.456Z,974.86
2022-10-23T09:32:53.523Z,974.87
2022-10-23T09:33:53.427Z,974.81
2022-10-23T09:34:53.413Z,974.80
2022-10-23T09:35:53.403Z,974.81
2022-10-23T09:36:53.383Z,974.70
2022-10-23T09:37:53.383Z,974.68
2022-10-23T09:38:53.352Z,974.69
2022-10-23T09:39:53.345Z,974.68
2022-10-23T09:40:53.327Z,974.67
2022-10-23T09:41:56.322Z,974.67
2022-10-23T09:42:53.303Z,974.66
2022-10-23T09:43:53.295Z,974.74
2022-10-23T09:44:53.282Z,974.70
2022-10-23T09:45:53.269Z,974.67
2022-10-23T09:46:53.255Z,974.60
2022-10-23T09:47:53.242Z,974.57
2022-10-23T09:48:53.244Z,974.60
2022-10-23T09:49:53.224Z,974.62
2022-10-23T09:50:53.193Z,974.66
2022-10-23T09:51:53.182Z,974.63
2022-10-23T09:52:53.265Z,974.66
2022-10-23T09:53:53.155Z,974.57
2022-10-23T09:54:53.139Z,974.53
2022-10-23T09:55:53.130Z,974.55
2022-10-23T09:56:53.125Z,974.64
2022-10-23T09:57:53.107Z,974.73
2022-10-23T09:58:53.091Z,974.69
2022-10-23T09:59:53.084Z,974.69
2022-10-23T10:00:55.316Z,974.69
2022-10-23T10:01:53.195Z,974.67
2022-10-23T10:02:53.166Z,974.69
2022-10-23T10:03:53.030Z,974.70
2022-10-23T10:04:53.038Z,974.69
2022-10-23T10:05:53.006Z,974.73
2022-10-23T10:06:52.987Z,974.74
2022-10-23T10:07:52.977Z,974.78
2022-10-23T10:08:52.955Z,974.72
2022-10-23T10:09:52.947Z,974.72
2022-10-23T10:10:52.933Z,974.67
2022-10-23T10:11:52.927Z,974.70
2022-10-23T10:12:52.993Z,974.70
2022-10-23T10:13:52.895Z,974.72
2022-10-23T10:14:52.881Z,974.62
2022-10-23T10:15:52.875Z,974.71
2022-10-23T10:16:52.853Z,974.69
2022-10-23T10:17:52.846Z,974.61
2022-10-23T10:18:52.824Z,974.63
2022-10-23T10:19:52.813Z,974.59
2022-10-23T10:20:52.818Z,974.67
2022-10-23T10:21:52.784Z,974.67
2022-10-23T10:22:52.803Z,974.67
2022-10-23T10:23:52.756Z,974.60
2022-10-23T10:24:52.747Z,974.58
2022-10-23T10:25:52.738Z,974.61
2022-10-23T10:26:52.714Z,974.59
2022-10-23T10:27:53.354Z,974.53
2022-10-23T10:28:52.698Z,974.48
2022-10-23T10:29:52.678Z,974.48
2022-10-23T10:30:52.663Z,974.49
2022-10-23T10:31:53.268Z,974.45
2022-10-23T10:32:52.799Z,974.37
2022-10-23T10:33:52.627Z,974.47
2022-10-23T10:34:52.619Z,974.33
2022-10-23T10:35:52.601Z,974.38
2022-10-23T10:36:52.611Z,974.37
2022-10-23T10:37:53.120Z,974.33
2022-10-23T10:38:52.568Z,974.30
2022-10-23T10:39:52.548Z,974.35
2022-10-23T10:40:52.547Z,974.33
2022-10-23T10:41:52.523Z,974.28
2022-10-23T10:42:52.508Z,974.25
2022-10-23T10:43:52.593Z,974.21
2022-10-23T10:44:52.481Z,974.23
2022-10-23T10:45:52.465Z,974.20
2022-10-23T10:46:52.460Z,974.20
2022-10-23T10:47:52.443Z,974.25
2022-10-23T10:48:52.430Z,974.17
2022-10-23T10:49:52.411Z,974.34
2022-10-23T10:50:52.408Z,974.26
2022-10-23T10:51:52.394Z,974.26
2022-10-23T10:52:52.489Z,974.25
2022-10-23T10:53:52.365Z,974.25
2022-10-23T10:54:52.350Z,974.21
2022-10-23T10:55:52.335Z,974.19
2022-10-23T10:56:52.332Z,974.27
2022-10-23T10:57:53.052Z,974.15
2022-10-23T10:58:52.301Z,974.22
2022-10-23T10:59:52.283Z,974.17
2022-10-23T11:00:52.343Z,974.16
2022-10-23T11:01:52.442Z,974.20
2022-10-23T11:02:52.244Z,974.11
2022-10-23T11:03:52.229Z,974.06
2022-10-23T11:04:52.220Z,974.03
2022-10-23T11:05:52.264Z,974.02
2022-10-23T11:06:52.194Z,974.04
2022-10-23T11:07:52.178Z,974.03
2022-10-23T11:08:57.951Z,974.01
2022-10-23T11:09:53.176Z,973.99
2022-10-23T11:10:52.171Z,973.92
2022-10-23T11:11:52.123Z,973.82
2022-10-23T11:12:52.111Z,973.95
2022-10-23T11:13:52.092Z,973.89
2022-10-23T11:14:52.098Z,973.87
2022-10-23T11:16:52.080Z,973.95
2022-10-23T11:17:52.041Z,973.94
2022-10-23T11:18:52.036Z,973.99
2022-10-23T11:19:52.020Z,973.96
2022-10-23T11:20:52.012Z,973.83
2022-10-23T11:21:51.990Z,973.80
2022-10-23T11:22:51.980Z,973.84
2022-10-23T11:23:51.965Z,973.84
2022-10-23T11:24:54.506Z,973.77
2022-10-23T11:25:51.937Z,973.79
2022-10-23T11:26:51.924Z,973.78
2022-10-23T11:27:51.909Z,973.77
2022-10-23T11:28:51.900Z,973.80
2022-10-23T11:29:51.883Z,973.76
2022-10-23T11:30:51.873Z,973.70
2022-10-23T11:31:51.860Z,973.73
2022-10-23T11:32:51.846Z,973.62
2022-10-23T11:33:51.849Z,973.60
2022-10-23T11:34:51.843Z,973.63
2022-10-23T11:35:51.804Z,973.56
2022-10-23T11:36:51.792Z,973.54
2022-10-23T11:37:51.778Z,973.51
2022-10-23T11:38:51.768Z,973.52
2022-10-23T11:39:51.751Z,973.42
2022-10-23T11:41:51.723Z,973.46
2022-10-23T11:42:51.714Z,973.42
2022-10-23T11:43:51.696Z,973.37
2022-10-23T11:44:51.699Z,973.34
2022-10-23T11:45:51.673Z,973.30
2022-10-23T11:46:51.694Z,973.31
2022-10-23T11:47:51.652Z,973.29
2022-10-23T11:48:51.643Z,973.29
2022-10-23T11:49:51.626Z,973.28
2022-10-23T11:50:51.616Z,973.23
2022-10-23T11:51:51.598Z,973.21
2022-10-23T11:53:09.214Z,973.20
2022-10-23T11:53:52.597Z,973.22
2022-10-23T11:54:51.562Z,973.16
2022-10-23T11:55:51.551Z,973.20
2022-10-23T11:56:51.562Z,973.14
2022-10-23T11:57:51.525Z,973.16
2022-10-23T11:58:51.548Z,973.13
2022-10-23T11:59:51.691Z,973.12
2022-10-23T12:00:51.490Z,973.09
2022-10-23T12:01:51.620Z,973.11
2022-10-23T12:02:53.590Z,973.14
2022-10-23T12:03:51.439Z,973.15
2022-10-23T12:04:51.440Z,973.08
2022-10-23T12:05:51.488Z,973.08
2022-10-23T12:06:51.405Z,972.99
2022-10-23T12:07:51.388Z,973.06
2022-10-23T12:08:51.379Z,973.01
2022-10-23T12:09:51.362Z,973.01
2022-10-23T12:10:51.354Z,972.99
2022-10-23T12:11:51.338Z,973.07
2022-10-23T12:12:51.345Z,973.13
2022-10-23T12:13:51.311Z,973.10
2022-10-23T12:14:51.306Z,972.99
2022-10-23T12:15:51.291Z,972.99
2022-10-23T12:16:51.280Z,972.89
2022-10-23T12:17:51.268Z,972.95
2022-10-23T12:18:51.254Z,972.99
2022-10-23T12:19:51.237Z,973.04
2022-10-23T12:20:51.228Z,972.92
2022-10-23T12:21:51.221Z,972.87
2022-10-23T12:22:51.199Z,972.90
2022-10-23T12:23:51.191Z,972.91
2022-10-23T12:24:51.174Z,972.91
2022-10-23T12:25:51.157Z,972.94
2022-10-23T12:26:51.145Z,972.87
2022-10-23T12:27:51.141Z,972.98
2022-10-23T12:28:51.139Z,972.94
2022-10-23T12:29:51.103Z,972.86
2022-10-23T12:30:51.125Z,972.84
2022-10-23T12:31:51.082Z,972.79
2022-10-23T12:32:51.077Z,972.69
2022-10-23T12:33:51.055Z,972.73
2022-10-23T12:34:51.046Z,972.74
2022-10-23T12:35:51.038Z,972.77